sensor_id;sensor_type;location;lat;lon;timestamp;temperature;humidity
16964;DHT22;8598;50.508;10.436;2022-08-06T14:15:43;22.80;88.90
16964;DHT22;8598;50.508;10.436;2022-08-06T14:18:10;23.00;91.00
16964;DHT22;8598;50.508;10.436;2022-08-06T14:20:37;23.30;90.80
16964;DHT22;8598;50.508;10.436;2022-08-06T14:23:04;23.10;91.10
16964;DHT22;8598;50.508;10.436;2022-08-06T14:25:31;23.20;91.70
16964;DHT22;8598;50.508;10.436;2022-08-06T14:27:58;23.10;90.50
16964;DHT22;8598;50.508;10.436;2022-08-06T14:30:26;23.20;90.00
16964;DHT22;8598;50.508;10.436;2022-08-06T14:32:55;22.90;90.00
16964;DHT22;8598;50.508;10.436;2022-08-06T14:35:21;23.00;90.70
16964;DHT22;8598;50.508;10.436;2022-08-06T14:37:48;22.80;90.70
16964;DHT22;8598;50.508;10.436;2022-08-06T14:40:15;22.80;91.10
16964;DHT22;8598;50.508;10.436;2022-08-06T14:43:02;22.80;90.40
16964;DHT22;8598;50.508;10.436;2022-08-06T14:45:54;22.90;89.60
16964;DHT22;8598;50.508;10.436;2022-08-06T14:48:22;23.10;90.80
16964;DHT22;8598;50.508;10.436;2022-08-06T14:50:49;22.90;87.70
16964;DHT22;8598;50.508;10.436;2022-08-06T14:53:16;23.10;89.80
16964;DHT22;8598;50.508;10.436;2022-08-06T14:55:43;23.80;89.10
16964;DHT22;8598;50.508;10.436;2022-08-06T14:58:10;22.90;89.40
16964;DHT22;8598;50.508;10.436;2022-08-06T15:00:37;23.70;90.20
16964;DHT22;8598;50.508;10.436;2022-08-06T15:03:04;22.90;90.30
16964;DHT22;8598;50.508;10.436;2022-08-06T15:05:32;23.80;90.20
16964;DHT22;8598;50.508;10.436;2022-08-06T15:08:00;23.90;90.10
16964;DHT22;8598;50.508;10.436;2022-08-06T15:10:28;23.00;89.00
16964;DHT22;8598;50.508;10.436;2022-08-06T15:12:54;23.00;89.80
16964;DHT22;8598;50.508;10.436;2022-08-06T15:15:23;23.40;89.80
16964;DHT22;8598;50.508;10.436;2022-08-06T15:17:50;23.00;89.90
16964;DHT22;8598;50.508;10.436;2022-08-06T15:20:17;23.00;90.10
16964;DHT22;8598;50.508;10.436;2022-08-06T15:22:45;22.90;89.40
16964;DHT22;8598;50.508;10.436;2022-08-06T15:25:12;23.00;88.50
16964;DHT22;8598;50.508;10.436;2022-08-06T15:27:42;22.80;88.30
16964;DHT22;8598;50.508;10.436;2022-08-06T15:30:10;24.00;89.40
16964;DHT22;8598;50.508;10.436;2022-08-06T15:32:37;22.80;90.10
16964;DHT22;8598;50.508;10.436;2022-08-06T15:35:05;24.10;89.90
16964;DHT22;8598;50.508;10.436;2022-08-06T15:37:34;22.80;89.40
16964;DHT22;8598;50.508;10.436;2022-08-06T15:40:02;23.30;90.10
16964;DHT22;8598;50.508;10.436;2022-08-06T15:42:29;22.70;87.70
16964;DHT22;8598;50.508;10.436;2022-08-06T15:44:56;22.80;90.00
16964;DHT22;8598;50.508;10.436;2022-08-06T15:47:23;22.80;90.30
16964;DHT22;8598;50.508;10.436;2022-08-06T15:49:49;22.60;88.90
16964;DHT22;8598;50.508;10.436;2022-08-06T15:52:16;22.90;89.10
16964;DHT22;8598;50.508;10.436;2022-08-06T15:54:43;23.20;90.40
16964;DHT22;8598;50.508;10.436;2022-08-06T15:57:14;22.60;89.40
16964;DHT22;8598;50.508;10.436;2022-08-06T15:59:43;22.50;89.10
16964;DHT22;8598;50.508;10.436;2022-08-06T16:02:10;22.50;89.40
16964;DHT22;8598;50.508;10.436;2022-08-06T16:04:38;22.40;90.20
16964;DHT22;8598;50.508;10.436;2022-08-06T16:07:05;23.20;90.40
16964;DHT22;8598;50.508;10.436;2022-08-06T16:09:33;22.80;90.10
16964;DHT22;8598;50.508;10.436;2022-08-06T16:11:59;22.60;89.80
16964;DHT22;8598;50.508;10.436;2022-08-06T16:14:27;22.60;90.40
16964;DHT22;8598;50.508;10.436;2022-08-06T16:16:54;22.50;90.20
16964;DHT22;8598;50.508;10.436;2022-08-06T16:19:23;22.60;90.00
16964;DHT22;8598;50.508;10.436;2022-08-06T16:21:50;22.60;89.20
16964;DHT22;8598;50.508;10.436;2022-08-06T16:24:17;23.40;90.20
16964;DHT22;8598;50.508;10.436;2022-08-06T16:26:44;22.40;90.00
16964;DHT22;8598;50.508;10.436;2022-08-06T16:29:11;23.30;90.20
16964;DHT22;8598;50.508;10.436;2022-08-06T16:31:39;22.30;90.10
16964;DHT22;8598;50.508;10.436;2022-08-06T16:34:06;22.30;89.30
16964;DHT22;8598;50.508;10.436;2022-08-06T16:36:34;22.10;89.80
16964;DHT22;8598;50.508;10.436;2022-08-06T16:39:01;22.10;89.80
16964;DHT22;8598;50.508;10.436;2022-08-06T16:41:28;22.70;89.70
16964;DHT22;8598;50.508;10.436;2022-08-06T16:43:54;23.30;91.80
16964;DHT22;8598;50.508;10.436;2022-08-06T16:46:21;22.10;90.50
16964;DHT22;8598;50.508;10.436;2022-08-06T16:48:49;22.00;91.40
16964;DHT22;8598;50.508;10.436;2022-08-06T16:51:16;23.10;90.70
16964;DHT22;8598;50.508;10.436;2022-08-06T16:53:45;22.00;90.30
16964;DHT22;8598;50.508;10.436;2022-08-06T16:56:11;22.00;90.40
16964;DHT22;8598;50.508;10.436;2022-08-06T16:58:38;21.90;90.00
16964;DHT22;8598;50.508;10.436;2022-08-06T17:01:06;21.80;90.10
16964;DHT22;8598;50.508;10.436;2022-08-06T17:03:33;21.80;90.00
16964;DHT22;8598;50.508;10.436;2022-08-06T17:06:01;22.00;90.10
16964;DHT22;8598;50.508;10.436;2022-08-06T17:08:31;21.50;90.40
16964;DHT22;8598;50.508;10.436;2022-08-06T17:10:58;21.50;90.30
16964;DHT22;8598;50.508;10.436;2022-08-06T17:13:25;21.80;90.00
16964;DHT22;8598;50.508;10.436;2022-08-06T17:15:53;21.50;90.50
16964;DHT22;8598;50.508;10.436;2022-08-06T17:18:23;21.40;90.70
16964;DHT22;8598;50.508;10.436;2022-08-06T17:20:51;21.40;90.70
16964;DHT22;8598;50.508;10.436;2022-08-06T17:23:19;21.50;90.80
16964;DHT22;8598;50.508;10.436;2022-08-06T17:25:46;21.20;91.20
16964;DHT22;8598;50.508;10.436;2022-08-06T17:28:13;21.10;90.80
16964;DHT22;8598;50.508;10.436;2022-08-06T17:30:40;21.10;91.30
16964;DHT22;8598;50.508;10.436;2022-08-06T17:33:06;21.60;91.70
16964;DHT22;8598;50.508;10.436;2022-08-06T17:35:34;20.80;91.60
16964;DHT22;8598;50.508;10.436;2022-08-06T17:38:00;21.00;91.60
16964;DHT22;8598;50.508;10.436;2022-08-06T17:40:28;20.70;91.50
16964;DHT22;8598;50.508;10.436;2022-08-06T17:42:55;20.70;92.00
16964;DHT22;8598;50.508;10.436;2022-08-06T17:45:22;21.80;92.20
16964;DHT22;8598;50.508;10.436;2022-08-06T17:47:51;20.60;92.00
16964;DHT22;8598;50.508;10.436;2022-08-06T17:50:18;20.50;92.00
16964;DHT22;8598;50.508;10.436;2022-08-06T17:52:45;21.80;92.50
16964;DHT22;8598;50.508;10.436;2022-08-06T17:55:12;20.40;92.00
16964;DHT22;8598;50.508;10.436;2022-08-06T17:57:40;20.40;92.30
16964;DHT22;8598;50.508;10.436;2022-08-06T18:00:08;20.30;92.30
16964;DHT22;8598;50.508;10.436;2022-08-06T18:02:37;20.20;92.40
16964;DHT22;8598;50.508;10.436;2022-08-06T18:05:04;19.60;91.90
16964;DHT22;8598;50.508;10.436;2022-08-06T18:07:31;20.00;92.50
16964;DHT22;8598;50.508;10.436;2022-08-06T18:09:58;20.00;93.00
16964;DHT22;8598;50.508;10.436;2022-08-06T18:12:44;19.80;93.00
16964;DHT22;8598;50.508;10.436;2022-08-06T18:15:11;20.80;93.50
16964;DHT22;8598;50.508;10.436;2022-08-06T18:17:37;19.70;93.30
16964;DHT22;8598;50.508;10.436;2022-08-06T18:20:06;19.60;93.30
16964;DHT22;8598;50.508;10.436;2022-08-06T18:22:33;19.50;93.40
16964;DHT22;8598;50.508;10.436;2022-08-06T18:24:59;20.50;94.00
16964;DHT22;8598;50.508;10.436;2022-08-06T18:27:26;19.30;94.00
16964;DHT22;8598;50.508;10.436;2022-08-06T18:29:54;19.20;94.00
16964;DHT22;8598;50.508;10.436;2022-08-06T18:32:21;19.10;94.40
16964;DHT22;8598;50.508;10.436;2022-08-06T18:34:50;19.60;94.40
16964;DHT22;8598;50.508;10.436;2022-08-06T18:37:17;20.40;94.90
16964;DHT22;8598;50.508;10.436;2022-08-06T18:39:45;19.00;94.20
16964;DHT22;8598;50.508;10.436;2022-08-06T18:42:11;18.90;94.40
16964;DHT22;8598;50.508;10.436;2022-08-06T18:44:38;18.70;95.10
16964;DHT22;8598;50.508;10.436;2022-08-06T18:47:06;18.60;94.60
16964;DHT22;8598;50.508;10.436;2022-08-06T18:49:34;18.60;95.00
16964;DHT22;8598;50.508;10.436;2022-08-06T18:52:01;18.60;94.70
16964;DHT22;8598;50.508;10.436;2022-08-06T18:54:27;18.60;94.80
16964;DHT22;8598;50.508;10.436;2022-08-06T18:56:54;18.60;94.90
16964;DHT22;8598;50.508;10.436;2022-08-06T18:59:21;18.90;95.30
16964;DHT22;8598;50.508;10.436;2022-08-06T19:01:50;18.10;95.60
16964;DHT22;8598;50.508;10.436;2022-08-06T19:04:18;19.20;96.00
16964;DHT22;8598;50.508;10.436;2022-08-06T19:06:45;18.00;95.90
16964;DHT22;8598;50.508;10.436;2022-08-06T19:09:11;17.80;96.30
16964;DHT22;8598;50.508;10.436;2022-08-06T19:11:44;17.90;97.40
16964;DHT22;8598;50.508;10.436;2022-08-06T19:14:12;17.30;97.70
16964;DHT22;8598;50.508;10.436;2022-08-06T19:16:41;17.00;98.50
16964;DHT22;8598;50.508;10.436;2022-08-06T19:19:10;16.80;98.30
16964;DHT22;8598;50.508;10.436;2022-08-06T19:21:38;18.20;99.40
16964;DHT22;8598;50.508;10.436;2022-08-06T19:24:05;16.40;99.50
16964;DHT22;8598;50.508;10.436;2022-08-06T19:26:32;16.30;99.20
16964;DHT22;8598;50.508;10.436;2022-08-06T19:28:59;16.00;99.90
16964;DHT22;8598;50.508;10.436;2022-08-06T19:31:26;16.00;99.90
16964;DHT22;8598;50.508;10.436;2022-08-06T19:33:52;16.00;99.90
16964;DHT22;8598;50.508;10.436;2022-08-06T19:36:20;16.30;99.90
16964;DHT22;8598;50.508;10.436;2022-08-06T19:38:48;15.90;99.90
16964;DHT22;8598;50.508;10.436;2022-08-06T19:41:20;15.70;99.90
16964;DHT22;8598;50.508;10.436;2022-08-06T19:43:47;15.90;99.90
16964;DHT22;8598;50.508;10.436;2022-08-06T19:46:13;16.10;99.90
16964;DHT22;8598;50.508;10.436;2022-08-06T19:48:40;15.60;99.90
16964;DHT22;8598;50.508;10.436;2022-08-06T19:51:07;15.40;99.90
16964;DHT22;8598;50.508;10.436;2022-08-06T19:53:35;15.20;99.90
16964;DHT22;8598;50.508;10.436;2022-08-06T19:56:04;15.00;99.90
16964;DHT22;8598;50.508;10.436;2022-08-06T19:58:31;15.00;99.90
16964;DHT22;8598;50.508;10.436;2022-08-06T20:00:57;14.80;99.90
16964;DHT22;8598;50.508;10.436;2022-08-06T20:03:32;14.70;99.90
16964;DHT22;8598;50.508;10.436;2022-08-06T20:05:59;14.70;99.90
16964;DHT22;8598;50.508;10.436;2022-08-06T20:08:26;14.70;99.90
16964;DHT22;8598;50.508;10.436;2022-08-06T20:10:53;14.40;99.90
16964;DHT22;8598;50.508;10.436;2022-08-06T20:13:21;15.40;99.90
16964;DHT22;8598;50.508;10.436;2022-08-06T20:15:48;14.10;99.90
16964;DHT22;8598;50.508;10.436;2022-08-06T20:18:15;14.80;99.90
16964;DHT22;8598;50.508;10.436;2022-08-06T20:20:41;13.90;99.90
16964;DHT22;8598;50.508;10.436;2022-08-06T20:23:08;13.70;99.90
16964;DHT22;8598;50.508;10.436;2022-08-06T20:25:35;13.80;99.90
16964;DHT22;8598;50.508;10.436;2022-08-06T20:28:02;13.80;99.90
16964;DHT22;8598;50.508;10.436;2022-08-06T20:30:30;14.20;99.90
16964;DHT22;8598;50.508;10.436;2022-08-06T20:32:57;14.70;99.90
16964;DHT22;8598;50.508;10.436;2022-08-06T20:35:25;14.40;99.90
16964;DHT22;8598;50.508;10.436;2022-08-06T20:37:52;14.40;99.90
16964;DHT22;8598;50.508;10.436;2022-08-06T20:40:19;14.40;99.90
16964;DHT22;8598;50.508;10.436;2022-08-06T20:42:46;14.30;99.90
16964;DHT22;8598;50.508;10.436;2022-08-06T20:45:14;14.20;99.90
16964;DHT22;8598;50.508;10.436;2022-08-06T20:47:42;14.00;99.90
16964;DHT22;8598;50.508;10.436;2022-08-06T20:50:10;13.90;99.90
16964;DHT22;8598;50.508;10.436;2022-08-06T20:52:38;13.70;99.90
16964;DHT22;8598;50.508;10.436;2022-08-06T20:55:06;13.70;99.90
16964;DHT22;8598;50.508;10.436;2022-08-06T20:57:34;13.70;99.90
16964;DHT22;8598;50.508;10.436;2022-08-06T21:00:03;13.60;99.90
16964;DHT22;8598;50.508;10.436;2022-08-06T21:02:30;13.50;99.90
16964;DHT22;8598;50.508;10.436;2022-08-06T21:04:58;15.20;99.90
16964;DHT22;8598;50.508;10.436;2022-08-06T21:07:25;13.80;99.90
16964;DHT22;8598;50.508;10.436;2022-08-06T21:09:52;13.60;99.90
16964;DHT22;8598;50.508;10.436;2022-08-06T21:12:20;13.50;99.90
16964;DHT22;8598;50.508;10.436;2022-08-06T21:14:47;13.80;99.90
16964;DHT22;8598;50.508;10.436;2022-08-06T21:17:15;13.40;99.90
16964;DHT22;8598;50.508;10.436;2022-08-06T21:19:42;13.20;99.90
16964;DHT22;8598;50.508;10.436;2022-08-06T21:22:10;13.00;99.90
16964;DHT22;8598;50.508;10.436;2022-08-06T21:24:37;12.80;99.90
16964;DHT22;8598;50.508;10.436;2022-08-06T21:27:12;12.60;99.90
16964;DHT22;8598;50.508;10.436;2022-08-06T21:29:39;12.60;99.90
16964;DHT22;8598;50.508;10.436;2022-08-06T21:32:06;12.40;99.90
16964;DHT22;8598;50.508;10.436;2022-08-06T21:34:33;12.30;99.90
16964;DHT22;8598;50.508;10.436;2022-08-06T21:37:00;13.00;99.90
16964;DHT22;8598;50.508;10.436;2022-08-06T21:39:31;11.90;99.90
16964;DHT22;8598;50.508;10.436;2022-08-06T21:41:58;11.90;99.90
16964;DHT22;8598;50.508;10.436;2022-08-06T21:44:25;11.80;99.90
16964;DHT22;8598;50.508;10.436;2022-08-06T21:46:52;11.70;99.90
16964;DHT22;8598;50.508;10.436;2022-08-06T21:49:26;11.70;99.90
16964;DHT22;8598;50.508;10.436;2022-08-06T21:51:52;11.40;99.90
16964;DHT22;8598;50.508;10.436;2022-08-06T21:54:20;11.30;99.90
16964;DHT22;8598;50.508;10.436;2022-08-06T21:56:48;11.30;99.90
16964;DHT22;8598;50.508;10.436;2022-08-06T21:59:15;11.30;99.90
16964;DHT22;8598;50.508;10.436;2022-08-06T22:01:42;11.10;99.90
16964;DHT22;8598;50.508;10.436;2022-08-06T22:04:14;10.90;99.90
16964;DHT22;8598;50.508;10.436;2022-08-06T22:06:41;10.80;99.90
16964;DHT22;8598;50.508;10.436;2022-08-06T22:09:08;10.70;99.90
16964;DHT22;8598;50.508;10.436;2022-08-06T22:11:35;11.30;99.90
16964;DHT22;8598;50.508;10.436;2022-08-06T22:14:03;10.50;99.90
16964;DHT22;8598;50.508;10.436;2022-08-06T22:16:35;10.40;99.90
16964;DHT22;8598;50.508;10.436;2022-08-06T22:19:02;10.30;99.90
16964;DHT22;8598;50.508;10.436;2022-08-06T22:21:29;10.60;99.90
16964;DHT22;8598;50.508;10.436;2022-08-06T22:23:55;10.50;99.90
16964;DHT22;8598;50.508;10.436;2022-08-06T22:26:22;10.50;99.90
16964;DHT22;8598;50.508;10.436;2022-08-06T22:28:49;10.30;99.90
16964;DHT22;8598;50.508;10.436;2022-08-06T22:31:17;10.70;99.90
16964;DHT22;8598;50.508;10.436;2022-08-06T22:33:44;10.30;99.90
16964;DHT22;8598;50.508;10.436;2022-08-06T22:36:11;10.10;99.90
16964;DHT22;8598;50.508;10.436;2022-08-06T22:38:38;9.60;99.90
16964;DHT22;8598;50.508;10.436;2022-08-06T22:41:05;9.90;99.90
16964;DHT22;8598;50.508;10.436;2022-08-06T22:43:41;8.40;99.90
16964;DHT22;8598;50.508;10.436;2022-08-06T22:46:08;9.60;99.90
16964;DHT22;8598;50.508;10.436;2022-08-06T22:48:36;9.70;99.90
16964;DHT22;8598;50.508;10.436;2022-08-06T22:51:03;11.00;99.90
16964;DHT22;8598;50.508;10.436;2022-08-06T22:53:32;9.80;99.90
16964;DHT22;8598;50.508;10.436;2022-08-06T22:55:58;9.60;99.90
16964;DHT22;8598;50.508;10.436;2022-08-06T22:58:25;9.70;99.90
16964;DHT22;8598;50.508;10.436;2022-08-06T23:00:52;9.50;99.90
16964;DHT22;8598;50.508;10.436;2022-08-06T23:03:18;9.40;99.90
16964;DHT22;8598;50.508;10.436;2022-08-06T23:05:46;9.30;99.90
16964;DHT22;8598;50.508;10.436;2022-08-06T23:08:14;9.30;99.90
16964;DHT22;8598;50.508;10.436;2022-08-06T23:10:41;9.40;99.90
16964;DHT22;8598;50.508;10.436;2022-08-06T23:13:08;9.00;99.90
16964;DHT22;8598;50.508;10.436;2022-08-06T23:15:35;9.70;99.90
16964;DHT22;8598;50.508;10.436;2022-08-06T23:18:03;10.40;99.90
16964;DHT22;8598;50.508;10.436;2022-08-06T23:20:29;9.00;99.90
16964;DHT22;8598;50.508;10.436;2022-08-06T23:22:58;9.00;99.90
16964;DHT22;8598;50.508;10.436;2022-08-06T23:25:24;8.90;99.90
16964;DHT22;8598;50.508;10.436;2022-08-06T23:27:51;8.90;99.90
16964;DHT22;8598;50.508;10.436;2022-08-06T23:30:18;8.90;99.90
16964;DHT22;8598;50.508;10.436;2022-08-06T23:32:45;8.90;99.90
16964;DHT22;8598;50.508;10.436;2022-08-06T23:35:11;8.90;99.90
16964;DHT22;8598;50.508;10.436;2022-08-06T23:37:39;8.80;99.90
16964;DHT22;8598;50.508;10.436;2022-08-06T23:40:09;8.90;99.90
16964;DHT22;8598;50.508;10.436;2022-08-06T23:42:36;9.10;99.90
16964;DHT22;8598;50.508;10.436;2022-08-06T23:45:04;9.00;99.90
16964;DHT22;8598;50.508;10.436;2022-08-06T23:47:31;9.00;99.90
16964;DHT22;8598;50.508;10.436;2022-08-06T23:49:57;8.70;99.90
16964;DHT22;8598;50.508;10.436;2022-08-06T23:52:24;8.90;99.90
16964;DHT22;8598;50.508;10.436;2022-08-06T23:54:51;8.90;99.90
16964;DHT22;8598;50.508;10.436;2022-08-06T23:57:19;8.90;99.90
16964;DHT22;8598;50.508;10.436;2022-08-06T23:59:46;8.70;99.90
